createdAt,value
2018-04-28T00:00:56.523Z,0.00
2018-04-28T00:01:56.761Z,0.00
2018-04-28T00:02:56.997Z,0.00
2018-04-28T00:03:57.236Z,0.00
2018-04-28T00:04:57.474Z,0.00
2018-04-28T00:05:57.713Z,0.00
2018-04-28T00:06:57.949Z,0.00
2018-04-28T00:07:58.246Z,0.00
2018-04-28T00:08:58.426Z,0.00
2018-04-28T00:09:58.663Z,0.00
2018-04-28T00:10:58.902Z,0.00
2018-04-28T00:11:59.140Z,0.00
2018-04-28T00:12:59.379Z,0.00
2018-04-28T00:13:59.615Z,0.00
2018-04-28T00:14:59.860Z,0.00
2018-04-28T00:16:00.093Z,0.00
2018-04-28T00:17:00.331Z,0.00
2018-04-28T00:18:00.570Z,0.00
2018-04-28T00:19:00.807Z,0.00
2018-04-28T00:20:01.046Z,0.00
2018-04-28T00:21:01.281Z,0.00
2018-04-28T00:22:01.523Z,0.00
2018-04-28T00:23:01.761Z,0.00
2018-04-28T00:24:02.000Z,0.00
2018-04-28T00:25:02.239Z,0.00
2018-04-28T00:26:02.483Z,0.00
2018-04-28T00:27:02.716Z,0.00
2018-04-28T00:28:02.954Z,0.00
2018-04-28T00:29:03.192Z,0.00
2018-04-28T00:30:03.429Z,0.00
2018-04-28T00:31:03.670Z,0.00
2018-04-28T00:32:03.982Z,0.00
2018-04-28T00:33:04.148Z,0.00
2018-04-28T00:34:04.386Z,0.00
2018-04-28T00:35:04.625Z,0.00
2018-04-28T00:36:04.864Z,0.00
2018-04-28T00:37:05.099Z,0.00
2018-04-28T00:38:05.336Z,0.00
2018-04-28T00:39:05.578Z,0.00
2018-04-28T00:40:05.812Z,0.00
2018-04-28T00:41:06.048Z,0.00
2018-04-28T00:42:06.286Z,0.00
2018-04-28T00:43:06.525Z,0.00
2018-04-28T00:44:06.762Z,0.00
2018-04-28T00:45:07.000Z,0.00
2018-04-28T00:46:07.239Z,0.00
2018-04-28T00:47:07.475Z,0.00
2018-04-28T00:48:07.719Z,0.00
2018-04-28T00:49:07.952Z,0.00
2018-04-28T00:50:08.191Z,0.00
2018-04-28T00:51:08.438Z,0.00
2018-04-28T00:52:08.667Z,0.00
2018-04-28T00:53:08.905Z,0.00
2018-04-28T00:54:09.143Z,0.00
2018-04-28T00:55:09.381Z,0.00
2018-04-28T00:56:09.618Z,0.00
2018-04-28T00:57:09.855Z,0.00
2018-04-28T00:58:10.094Z,0.00
2018-04-28T00:59:10.332Z,0.00
2018-04-28T01:00:10.572Z,0.00
2018-04-28T01:01:10.809Z,0.00
2018-04-28T01:02:11.058Z,0.00
2018-04-28T01:03:11.289Z,0.00
2018-04-28T01:04:11.523Z,0.00
2018-04-28T01:05:11.763Z,0.00
2018-04-28T01:06:12.001Z,0.00
2018-04-28T01:07:12.238Z,0.00
2018-04-28T01:08:12.477Z,0.00
2018-04-28T01:09:12.779Z,0.00
2018-04-28T01:10:12.953Z,0.00
2018-04-28T01:11:13.190Z,0.00
2018-04-28T01:12:13.429Z,0.00
2018-04-28T01:13:13.666Z,0.00
2018-04-28T01:14:13.902Z,0.00
2018-04-28T01:15:14.141Z,0.00
2018-04-28T01:16:14.384Z,0.00
2018-04-28T01:17:14.617Z,0.00
2018-04-28T01:18:14.857Z,0.00
2018-04-28T01:19:15.096Z,0.00
2018-04-28T01:20:15.338Z,0.00
2018-04-28T01:21:15.571Z,0.00
2018-04-28T01:22:15.810Z,0.00
2018-04-28T01:23:16.049Z,0.00
2018-04-28T01:24:16.286Z,0.00
2018-04-28T01:25:16.527Z,0.00
2018-04-28T01:26:16.764Z,0.00
2018-04-28T01:27:17.006Z,0.00
2018-04-28T01:28:17.243Z,0.00
2018-04-28T01:29:17.482Z,0.00
2018-04-28T01:30:17.720Z,0.00
2018-04-28T01:31:17.958Z,0.00
2018-04-28T01:32:18.196Z,0.00
2018-04-28T01:33:18.434Z,0.00
2018-04-28T01:34:18.672Z,0.00
2018-04-28T01:35:18.909Z,0.00
2018-04-28T01:36:19.146Z,0.00
2018-04-28T01:37:19.383Z,0.00
2018-04-28T01:38:19.620Z,0.00
2018-04-28T01:39:19.859Z,0.00
2018-04-28T01:40:20.098Z,0.00
2018-04-28T01:41:20.338Z,0.00
2018-04-28T01:42:20.573Z,0.00
2018-04-28T01:43:20.812Z,0.00
2018-04-28T01:44:21.051Z,0.00
2018-04-28T01:45:21.289Z,0.00
2018-04-28T01:46:21.527Z,0.00
2018-04-28T01:47:21.764Z,0.00
2018-04-28T01:48:22.001Z,0.00
2018-04-28T01:49:22.240Z,0.00
2018-04-28T01:50:22.477Z,0.00
2018-04-28T01:51:22.717Z,0.00
2018-04-28T01:52:22.955Z,0.00
2018-04-28T01:53:23.192Z,0.00
2018-04-28T01:54:23.431Z,0.00
2018-04-28T01:55:23.664Z,0.00
2018-04-28T01:56:23.901Z,0.00
2018-04-28T01:57:24.222Z,0.00
2018-04-28T01:58:24.377Z,0.00
2018-04-28T01:59:24.614Z,0.00
2018-04-28T02:00:24.852Z,0.00
2018-04-28T02:01:25.093Z,0.00
2018-04-28T02:02:25.330Z,0.00
2018-04-28T02:03:25.576Z,0.00
2018-04-28T02:04:25.807Z,0.00
2018-04-28T02:05:26.046Z,0.00
2018-04-28T02:06:26.285Z,0.00
2018-04-28T02:07:26.520Z,0.00
2018-04-28T02:08:26.763Z,0.00
2018-04-28T02:09:26.995Z,0.00
2018-04-28T02:10:27.233Z,0.00
2018-04-28T02:11:27.472Z,0.00
2018-04-28T02:12:27.710Z,0.00
2018-04-28T02:13:27.947Z,0.00
2018-04-28T02:14:28.187Z,0.00
2018-04-28T02:15:28.425Z,0.00
2018-04-28T02:16:28.660Z,0.00
2018-04-28T02:17:28.899Z,0.00
2018-04-28T02:18:29.136Z,0.00
2018-04-28T02:19:29.376Z,0.00
2018-04-28T02:20:29.614Z,0.00
2018-04-28T02:21:29.852Z,0.00
2018-04-28T02:22:30.091Z,0.00
2018-04-28T02:23:30.328Z,0.00
2018-04-28T02:24:30.566Z,0.00
2018-04-28T02:25:30.804Z,0.00
2018-04-28T02:26:31.042Z,0.00
2018-04-28T02:27:31.279Z,0.00
2018-04-28T02:28:31.516Z,0.00
2018-04-28T02:29:31.832Z,0.00
2018-04-28T02:30:31.994Z,0.00
2018-04-28T02:31:32.233Z,0.00
2018-04-28T02:32:32.471Z,0.00
2018-04-28T02:33:32.710Z,0.00
2018-04-28T02:34:32.947Z,0.00
2018-04-28T02:35:33.185Z,0.00
2018-04-28T02:36:33.422Z,0.00
2018-04-28T02:37:33.661Z,0.00
2018-04-28T02:38:33.898Z,0.00
2018-04-28T02:39:34.140Z,0.00
2018-04-28T02:40:34.375Z,0.00
2018-04-28T02:41:34.611Z,0.00
2018-04-28T02:42:34.849Z,0.00
2018-04-28T02:43:35.091Z,0.00
2018-04-28T02:44:35.328Z,0.00
2018-04-28T02:45:35.564Z,0.00
2018-04-28T02:46:35.803Z,0.00
2018-04-28T02:47:36.042Z,0.00
2018-04-28T02:48:36.285Z,0.00
2018-04-28T02:49:36.529Z,0.00
2018-04-28T02:50:36.760Z,0.00
2018-04-28T02:51:37.000Z,0.00
2018-04-28T02:52:37.237Z,0.00
2018-04-28T02:53:37.473Z,0.00
2018-04-28T02:54:37.712Z,0.00
2018-04-28T02:55:37.952Z,0.00
2018-04-28T02:56:38.189Z,0.00
2018-04-28T02:57:38.426Z,0.00
2018-04-28T02:58:38.666Z,0.00
2018-04-28T02:59:38.904Z,0.00
2018-04-28T03:00:39.139Z,0.00
2018-04-28T03:01:39.375Z,0.00
2018-04-28T03:02:39.618Z,0.00
2018-04-28T03:03:39.853Z,0.00
2018-04-28T03:04:40.092Z,0.00
2018-04-28T03:05:40.330Z,0.00
2018-04-28T03:06:40.569Z,0.00
2018-04-28T03:07:40.808Z,0.00
2018-04-28T03:08:41.045Z,0.00
2018-04-28T03:09:41.283Z,0.00
2018-04-28T03:10:41.519Z,0.00
2018-04-28T03:11:41.756Z,0.00
2018-04-28T03:12:41.993Z,0.00
2018-04-28T03:13:42.227Z,0.00
2018-04-28T03:14:42.464Z,0.00
2018-04-28T03:15:42.701Z,0.00
2018-04-28T03:16:42.940Z,0.00
2018-04-28T03:17:43.178Z,0.00
2018-04-28T03:18:43.421Z,0.00
2018-04-28T03:19:43.654Z,0.00
2018-04-28T03:20:43.893Z,0.00
2018-04-28T03:21:44.131Z,0.00
2018-04-28T03:22:44.369Z,0.00
2018-04-28T03:23:44.608Z,0.00
2018-04-28T03:24:44.845Z,0.00
2018-04-28T03:25:45.082Z,4.00
2018-04-28T03:26:45.320Z,4.00
2018-04-28T03:27:45.557Z,4.00
2018-04-28T03:28:45.798Z,0.00
2018-04-28T03:29:46.033Z,4.00
2018-04-28T03:30:46.269Z,4.00
2018-04-28T03:31:46.509Z,4.00
2018-04-28T03:32:46.748Z,8.00
2018-04-28T03:33:46.985Z,4.00
2018-04-28T03:34:47.235Z,8.00
2018-04-28T03:35:47.461Z,8.00
2018-04-28T03:36:47.699Z,12.00
2018-04-28T03:37:47.937Z,12.00
2018-04-28T03:38:48.175Z,16.00
2018-04-28T03:39:48.414Z,16.00
2018-04-28T03:40:48.651Z,20.00
2018-04-28T03:41:48.889Z,24.00
2018-04-28T03:42:49.125Z,28.00
2018-04-28T03:43:49.366Z,32.00
2018-04-28T03:44:49.600Z,40.00
2018-04-28T03:45:49.841Z,44.00
2018-04-28T03:46:50.080Z,52.00
2018-04-28T03:47:50.320Z,60.00
2018-04-28T03:48:50.557Z,68.00
2018-04-28T03:49:50.797Z,80.00
2018-04-28T03:50:51.034Z,92.00
2018-04-28T03:51:51.274Z,108.00
2018-04-28T03:52:51.510Z,120.00
2018-04-28T03:53:51.749Z,140.00
2018-04-28T03:54:51.987Z,156.00
2018-04-28T03:55:52.227Z,172.00
2018-04-28T03:56:52.466Z,196.00
2018-04-28T03:57:52.703Z,212.00
2018-04-28T03:58:52.944Z,236.00
2018-04-28T03:59:53.181Z,256.00
2018-04-28T04:00:53.421Z,284.00
2018-04-28T04:01:53.656Z,312.00
2018-04-28T04:02:53.894Z,340.00
2018-04-28T04:03:54.140Z,372.00
2018-04-28T04:04:54.375Z,408.00
2018-04-28T04:05:54.616Z,440.00
2018-04-28T04:06:54.857Z,484.00
2018-04-28T04:07:55.097Z,528.00
2018-04-28T04:08:55.336Z,572.00
2018-04-28T04:09:55.577Z,616.00
2018-04-28T04:10:55.813Z,668.00
2018-04-28T04:11:56.051Z,716.00
2018-04-28T04:12:56.290Z,768.00
2018-04-28T04:13:56.530Z,828.00
2018-04-28T04:14:56.768Z,884.00
2018-04-28T04:15:57.007Z,944.00
2018-04-28T04:16:57.249Z,1000.00
2018-04-28T04:17:57.485Z,1052.00
2018-04-28T04:18:57.724Z,1108.00
2018-04-28T04:19:57.966Z,1164.00
2018-04-28T04:20:58.208Z,1224.00
2018-04-28T04:21:58.442Z,1276.00
2018-04-28T04:22:58.683Z,1336.00
2018-04-28T04:23:58.921Z,1384.00
2018-04-28T04:24:59.163Z,1436.00
2018-04-28T04:25:59.398Z,1488.00
2018-04-28T04:26:59.634Z,1536.00
2018-04-28T04:27:59.877Z,1580.00
2018-04-28T04:29:00.114Z,1624.00
2018-04-28T04:30:00.350Z,1680.00
2018-04-28T04:31:00.589Z,1740.00
2018-04-28T04:32:00.889Z,1812.00
2018-04-28T04:33:01.066Z,1876.00
2018-04-28T04:34:01.304Z,1928.00
2018-04-28T04:35:01.555Z,1984.00
2018-04-28T04:36:01.781Z,2032.00
2018-04-28T04:37:02.022Z,2080.00
2018-04-28T04:38:02.259Z,2124.00
2018-04-28T04:39:02.497Z,2176.00
2018-04-28T04:40:02.737Z,2232.00
2018-04-28T04:41:02.975Z,2300.00
2018-04-28T04:42:03.217Z,2388.00
2018-04-28T04:43:03.453Z,2456.00
2018-04-28T04:44:03.692Z,2480.00
2018-04-28T04:45:03.930Z,2520.00
2018-04-28T04:46:04.167Z,2584.00
2018-04-28T04:47:04.409Z,2644.00
2018-04-28T04:48:04.642Z,2692.00
2018-04-28T04:49:04.884Z,2776.00
2018-04-28T04:50:05.124Z,2872.00
2018-04-28T04:51:05.362Z,2928.00
2018-04-28T04:52:05.605Z,2984.00
2018-04-28T04:53:05.841Z,3064.00
2018-04-28T04:54:06.083Z,3116.00
2018-04-28T04:55:06.323Z,3148.00
2018-04-28T04:56:06.562Z,3180.00
2018-04-28T04:57:06.800Z,3220.00
2018-04-28T04:58:07.042Z,3296.00
2018-04-28T04:59:07.276Z,3436.00
2018-04-28T05:00:07.512Z,3576.00
2018-04-28T05:01:07.749Z,3728.00
2018-04-28T05:02:07.984Z,3748.00
2018-04-28T05:03:08.231Z,3784.00
2018-04-28T05:04:08.464Z,3888.00
2018-04-28T05:05:08.703Z,3964.00
2018-04-28T05:06:08.946Z,3984.00
2018-04-28T05:07:09.181Z,4044.00
2018-04-28T05:08:09.419Z,4036.00
2018-04-28T05:09:09.659Z,4016.00
2018-04-28T05:10:09.895Z,4064.00
2018-04-28T05:11:10.134Z,4120.00
2018-04-28T05:12:10.378Z,4184.00
2018-04-28T05:13:10.616Z,4340.00
2018-04-28T05:14:10.855Z,4368.00
2018-04-28T05:15:11.092Z,4364.00
2018-04-28T05:16:11.330Z,4424.00
2018-04-28T05:17:11.571Z,4424.00
2018-04-28T05:18:11.813Z,4532.00
2018-04-28T05:19:12.059Z,4496.00
2018-04-28T05:20:12.287Z,4464.00
2018-04-28T05:21:12.527Z,4456.00
2018-04-28T05:22:12.766Z,4568.00
2018-04-28T05:23:13.001Z,4616.00
2018-04-28T05:24:13.243Z,4668.00
2018-04-28T05:25:13.482Z,4716.00
2018-04-28T05:26:13.722Z,4728.00
2018-04-28T05:27:13.959Z,4752.00
2018-04-28T05:28:14.198Z,4788.00
2018-04-28T05:29:14.437Z,4896.00
2018-04-28T05:30:14.676Z,5024.00
2018-04-28T05:31:14.912Z,5060.00
2018-04-28T05:32:15.154Z,5036.00
2018-04-28T05:33:15.393Z,5136.00
2018-04-28T05:34:15.629Z,5160.00
2018-04-28T05:35:15.869Z,5104.00
2018-04-28T05:36:16.110Z,5236.00
2018-04-28T05:37:16.410Z,5240.00
2018-04-28T05:38:16.662Z,5488.00
2018-04-28T05:39:16.900Z,5596.00
2018-04-28T05:40:17.140Z,5588.00
2018-04-28T05:41:17.379Z,5696.00
2018-04-28T05:42:17.618Z,5764.00
2018-04-28T05:43:17.857Z,5692.00
2018-04-28T05:44:18.097Z,5760.00
2018-04-28T05:45:18.337Z,5876.00
2018-04-28T05:46:18.577Z,6052.00
2018-04-28T05:47:18.816Z,5980.00
2018-04-28T05:48:19.062Z,5952.00
2018-04-28T05:49:19.294Z,5968.00
2018-04-28T05:50:19.533Z,5920.00
2018-04-28T05:51:19.775Z,5892.00
2018-04-28T05:52:20.014Z,5764.00
2018-04-28T05:53:20.281Z,5620.00
2018-04-28T05:54:20.523Z,5656.00
2018-04-28T05:55:20.768Z,5792.00
2018-04-28T05:56:21.001Z,5760.00
2018-04-28T05:57:21.291Z,5820.00
2018-04-28T05:58:21.538Z,5808.00
2018-04-28T05:59:21.776Z,5872.00
2018-04-28T06:00:22.015Z,5828.00
2018-04-28T06:01:22.255Z,5756.00
2018-04-28T06:02:22.496Z,5776.00
2018-04-28T06:03:22.743Z,5884.00
2018-04-28T06:04:22.976Z,5928.00
2018-04-28T06:05:23.217Z,5944.00
2018-04-28T06:06:23.457Z,5928.00
2018-04-28T06:07:23.698Z,5932.00
2018-04-28T06:08:23.937Z,5968.00
2018-04-28T06:09:24.178Z,5960.00
2018-04-28T06:10:24.422Z,5948.00
2018-04-28T06:11:24.659Z,6052.00
2018-04-28T06:12:24.900Z,6036.00
2018-04-28T06:13:25.141Z,6068.00
2018-04-28T06:14:25.393Z,6052.00
2018-04-28T06:15:25.622Z,6168.00
2018-04-28T06:16:25.865Z,6264.00
2018-04-28T06:17:26.102Z,6376.00
2018-04-28T06:18:26.342Z,6400.00
2018-04-28T06:19:26.583Z,6348.00
2018-04-28T06:20:26.825Z,6368.00
2018-04-28T06:21:27.066Z,6368.00
2018-04-28T06:22:27.308Z,6468.00
2018-04-28T06:23:27.557Z,6552.00
2018-04-28T06:24:27.791Z,6608.00
2018-04-28T06:25:28.035Z,6664.00
2018-04-28T06:26:28.278Z,6668.00
2018-04-28T06:27:28.513Z,6276.00
2018-04-28T06:28:28.751Z,6216.00
2018-04-28T06:29:28.999Z,6624.00
2018-04-28T06:30:29.236Z,6580.00
2018-04-28T06:31:29.477Z,6516.00
2018-04-28T06:32:29.720Z,6460.00
2018-04-28T06:33:29.960Z,6436.00
2018-04-28T06:34:30.195Z,6704.00
2018-04-28T06:35:30.445Z,6460.00
2018-04-28T06:36:30.670Z,6136.00
2018-04-28T06:37:30.921Z,6964.00
2018-04-28T06:38:31.147Z,7008.00
2018-04-28T06:39:31.386Z,6976.00
2018-04-28T06:40:31.630Z,7088.00
2018-04-28T06:41:31.869Z,7048.00
2018-04-28T06:42:32.108Z,7228.00
2018-04-28T06:43:32.352Z,8440.00
2018-04-28T06:44:32.580Z,10152.00
2018-04-28T06:45:32.837Z,10864.00
2018-04-28T06:46:33.056Z,11348.00
2018-04-28T06:47:33.298Z,10052.00
2018-04-28T06:48:33.539Z,12328.00
2018-04-28T06:49:33.781Z,12288.00
2018-04-28T06:50:34.025Z,12664.00
2018-04-28T06:51:34.258Z,12832.00
2018-04-28T06:52:34.510Z,12448.00
2018-04-28T06:53:34.748Z,11504.00
2018-04-28T06:54:34.989Z,10816.00
2018-04-28T06:55:35.232Z,10068.00
2018-04-28T06:56:35.479Z,10972.00
2018-04-28T06:57:35.721Z,10652.00
2018-04-28T06:58:36.025Z,9848.00
2018-04-28T06:59:36.206Z,10332.00
2018-04-28T07:00:36.446Z,12572.00
2018-04-28T07:01:36.687Z,12584.00
2018-04-28T07:02:36.929Z,13460.00
2018-04-28T07:03:37.172Z,13436.00
2018-04-28T07:04:37.472Z,13148.00
2018-04-28T07:05:37.648Z,13700.00
2018-04-28T07:06:37.887Z,12224.00
2018-04-28T07:07:38.149Z,12356.00
2018-04-28T07:08:38.364Z,12668.00
2018-04-28T07:09:38.614Z,13232.00
2018-04-28T07:10:38.847Z,13128.00
2018-04-28T07:11:39.087Z,13340.00
2018-04-28T07:12:39.334Z,13852.00
2018-04-28T07:13:39.573Z,13296.00
2018-04-28T07:14:39.801Z,13860.00
2018-04-28T07:15:40.044Z,14868.00
2018-04-28T07:16:40.300Z,14316.00
2018-04-28T07:17:40.539Z,13372.00
2018-04-28T07:18:40.772Z,13464.00
2018-04-28T07:19:41.012Z,14744.00
2018-04-28T07:20:41.255Z,15280.00
2018-04-28T07:21:41.507Z,13868.00
2018-04-28T07:22:41.751Z,13028.00
2018-04-28T07:23:41.971Z,13644.00
2018-04-28T07:24:42.220Z,13968.00
2018-04-28T07:25:42.463Z,13760.00
2018-04-28T07:26:42.708Z,13720.00
2018-04-28T07:27:42.949Z,14520.00
2018-04-28T07:28:43.194Z,14640.00
2018-04-28T07:29:43.438Z,14416.00
2018-04-28T07:30:43.682Z,14480.00
2018-04-28T07:31:43.924Z,12628.00
2018-04-28T07:32:44.168Z,15668.00
2018-04-28T07:33:44.413Z,15056.00
2018-04-28T07:34:44.659Z,14112.00
2018-04-28T07:35:44.901Z,13744.00
2018-04-28T07:36:45.146Z,13944.00
2018-04-28T07:37:45.393Z,14380.00
2018-04-28T07:38:45.639Z,14640.00
2018-04-28T07:39:45.884Z,14736.00
2018-04-28T07:40:46.133Z,14856.00
2018-04-28T07:41:46.376Z,14780.00
2018-04-28T07:42:46.621Z,13972.00
2018-04-28T07:43:46.866Z,16160.00
2018-04-28T07:44:47.111Z,16320.00
2018-04-28T07:45:47.361Z,16608.00
2018-04-28T07:46:47.607Z,16512.00
2018-04-28T07:47:47.851Z,15900.00
2018-04-28T07:48:48.100Z,15644.00
2018-04-28T07:49:48.338Z,15172.00
2018-04-28T07:50:48.584Z,15968.00
2018-04-28T07:51:48.830Z,16384.00
2018-04-28T07:52:49.078Z,16608.00
2018-04-28T07:53:49.324Z,17056.00
2018-04-28T07:54:49.573Z,16992.00
2018-04-28T07:55:49.825Z,17632.00
2018-04-28T07:56:50.073Z,18560.00
2018-04-28T07:57:50.312Z,19264.00
2018-04-28T07:58:50.556Z,20896.00
2018-04-28T07:59:50.804Z,23360.00
2018-04-28T08:00:51.051Z,25664.00
2018-04-28T08:01:51.297Z,29984.00
2018-04-28T08:02:51.545Z,38912.00
2018-04-28T08:03:51.790Z,44736.00
2018-04-28T08:04:52.038Z,38208.00
2018-04-28T08:05:52.283Z,25472.00
2018-04-28T08:06:52.533Z,19328.00
2018-04-28T08:07:52.776Z,18048.00
2018-04-28T08:08:53.022Z,16928.00
2018-04-28T08:09:53.272Z,16544.00
2018-04-28T08:10:53.520Z,16288.00
2018-04-28T08:11:53.769Z,15552.00
2018-04-28T08:12:54.017Z,15208.00
2018-04-28T08:13:54.264Z,15132.00
2018-04-28T08:14:54.512Z,16768.00
2018-04-28T08:15:54.761Z,22016.00
2018-04-28T08:16:55.188Z,30080.00
2018-04-28T08:17:55.438Z,32416.00
2018-04-28T08:18:55.686Z,33376.00
2018-04-28T08:19:55.934Z,34176.00
2018-04-28T08:20:56.182Z,34400.00
2018-04-28T08:21:56.429Z,35200.00
2018-04-28T08:22:56.682Z,37408.00
2018-04-28T08:23:56.935Z,37792.00
2018-04-28T08:24:57.182Z,37056.00
2018-04-28T08:25:57.429Z,37408.00
2018-04-28T08:26:57.681Z,38400.00
2018-04-28T08:27:57.928Z,40864.00
2018-04-28T08:28:58.181Z,42272.00
2018-04-28T08:29:58.424Z,41376.00
2018-04-28T08:30:58.671Z,40544.00
2018-04-28T08:31:58.918Z,39616.00
2018-04-28T08:32:59.169Z,41184.00
2018-04-28T08:33:59.413Z,44256.00
2018-04-28T08:34:59.666Z,47200.00
2018-04-28T08:35:59.917Z,47936.00
2018-04-28T08:37:00.241Z,46240.00
2018-04-28T08:38:00.424Z,46208.00
2018-04-28T08:39:00.674Z,47840.00
2018-04-28T08:40:00.940Z,49280.00
2018-04-28T08:41:01.176Z,50048.00
2018-04-28T08:42:01.427Z,51328.00
2018-04-28T08:43:01.676Z,50432.00
2018-04-28T08:44:01.924Z,48768.00
2018-04-28T08:45:02.172Z,49536.00
2018-04-28T08:46:02.425Z,49824.00
2018-04-28T08:47:02.657Z,50912.00
2018-04-28T08:48:02.909Z,52800.00
2018-04-28T08:49:03.157Z,54176.00
2018-04-28T08:50:03.406Z,53952.00
2018-04-28T08:51:03.694Z,53984.00
2018-04-28T08:52:03.905Z,53536.00
2018-04-28T08:53:04.152Z,54976.00
2018-04-28T08:54:04.401Z,54464.00
2018-04-28T08:55:04.651Z,55296.00
2018-04-28T08:56:04.902Z,55424.00
2018-04-28T08:57:05.150Z,54624.00
2018-04-28T08:58:05.401Z,57760.00
2018-04-28T08:59:05.650Z,59232.00
2018-04-28T09:00:05.901Z,57792.00
2018-04-28T09:01:06.143Z,57344.00
2018-04-28T09:02:06.399Z,57152.00
2018-04-28T09:03:06.647Z,57024.00
2018-04-28T09:04:06.895Z,57728.00
2018-04-28T09:05:07.149Z,59712.00
2018-04-28T09:06:07.411Z,61344.00
2018-04-28T09:07:07.653Z,61248.00
2018-04-28T09:08:07.910Z,61152.00
2018-04-28T09:09:08.156Z,62176.00
2018-04-28T09:10:08.401Z,63488.00
2018-04-28T09:11:08.652Z,60800.00
2018-04-28T09:12:08.901Z,60160.00
2018-04-28T09:13:09.206Z,62912.00
2018-04-28T09:14:09.394Z,62176.00
2018-04-28T09:15:09.645Z,64896.00
2018-04-28T09:16:09.899Z,67872.00
2018-04-28T09:17:10.151Z,65920.00
2018-04-28T09:18:10.404Z,65312.00
2018-04-28T09:19:10.656Z,65984.00
2018-04-28T09:20:10.907Z,66528.00
2018-04-28T09:21:11.161Z,68640.00
2018-04-28T09:22:11.412Z,71584.00
2018-04-28T09:23:11.668Z,71680.00
2018-04-28T09:24:11.920Z,72224.00
2018-04-28T09:25:12.170Z,70592.00
2018-04-28T09:26:12.431Z,70080.00
2018-04-28T09:27:12.680Z,72064.00
2018-04-28T09:28:12.933Z,73440.00
2018-04-28T09:29:13.178Z,72800.00
2018-04-28T09:30:13.428Z,71904.00
2018-04-28T09:31:13.683Z,72288.00
2018-04-28T09:32:13.927Z,73920.00
2018-04-28T09:33:14.183Z,74752.00
2018-04-28T09:34:14.431Z,74240.00
2018-04-28T09:35:14.686Z,74976.00
2018-04-28T09:36:14.951Z,74496.00
2018-04-28T09:37:15.183Z,74816.00
2018-04-28T09:38:15.438Z,76736.00
2018-04-28T09:39:15.681Z,75136.00
2018-04-28T09:40:15.934Z,73536.00
2018-04-28T09:41:16.184Z,73312.00
2018-04-28T09:42:16.441Z,73024.00
2018-04-28T09:43:16.686Z,74816.00
2018-04-28T09:44:16.945Z,70976.00
2018-04-28T09:45:17.188Z,69856.00
2018-04-28T09:46:17.455Z,74240.00
2018-04-28T09:47:17.697Z,72800.00
2018-04-28T09:48:17.934Z,71904.00
2018-04-28T09:49:18.182Z,74720.00
2018-04-28T09:50:18.430Z,76192.00
2018-04-28T09:51:18.675Z,78720.00
2018-04-28T09:52:18.931Z,79200.00
2018-04-28T09:53:19.173Z,79776.00
2018-04-28T09:54:19.427Z,82976.00
2018-04-28T09:55:19.686Z,82976.00
2018-04-28T09:56:19.932Z,84992.00
2018-04-28T09:57:20.186Z,84352.00
2018-04-28T09:58:20.439Z,82048.00
2018-04-28T09:59:20.694Z,84096.00
2018-04-28T10:00:20.948Z,83584.00
2018-04-28T10:01:21.200Z,81600.00
2018-04-28T10:02:21.451Z,85408.00
2018-04-28T10:03:21.702Z,88096.00
2018-04-28T10:04:21.956Z,81376.00
2018-04-28T10:05:22.208Z,80992.00
2018-04-28T10:06:22.467Z,86592.00
2018-04-28T10:07:22.726Z,81536.00
2018-04-28T10:08:22.953Z,71008.00
2018-04-28T10:09:23.205Z,63136.00
2018-04-28T10:10:23.458Z,67296.00
2018-04-28T10:11:23.721Z,66208.00
2018-04-28T10:12:23.959Z,80288.00
2018-04-28T10:13:24.209Z,83936.00
2018-04-28T10:14:24.456Z,81696.00
2018-04-28T10:15:24.709Z,80864.00
2018-04-28T10:16:24.963Z,85824.00
2018-04-28T10:17:25.216Z,87520.00
2018-04-28T10:18:25.465Z,85120.00
2018-04-28T10:19:25.721Z,88224.00
2018-04-28T10:20:26.098Z,92160.00
2018-04-28T10:21:26.223Z,91168.00
2018-04-28T10:22:26.469Z,88384.00
2018-04-28T10:23:26.731Z,84736.00
2018-04-28T10:24:26.978Z,81856.00
2018-04-28T10:25:28.149Z,84032.00
2018-04-28T10:26:27.468Z,88064.00
2018-04-28T10:27:27.724Z,89376.00
2018-04-28T10:28:27.976Z,87168.00
2018-04-28T10:29:28.232Z,85664.00
2018-04-28T10:30:28.468Z,90816.00
2018-04-28T10:31:28.722Z,93632.00
2018-04-28T10:32:28.973Z,90016.00
2018-04-28T10:33:29.231Z,89056.00
2018-04-28T10:34:29.482Z,90592.00
2018-04-28T10:35:29.726Z,87488.00
2018-04-28T10:36:29.984Z,79104.00
2018-04-28T10:37:30.228Z,63616.00
2018-04-28T10:38:30.485Z,68512.00
2018-04-28T10:39:30.734Z,69888.00
2018-04-28T10:40:30.985Z,80512.00
2018-04-28T10:41:31.239Z,91456.00
2018-04-28T10:42:31.491Z,101184.00
2018-04-28T10:43:31.744Z,88512.00
2018-04-28T10:44:31.994Z,83168.00
2018-04-28T10:45:32.253Z,55488.00
2018-04-28T10:46:32.494Z,71872.00
2018-04-28T10:47:32.807Z,68224.00
2018-04-28T10:48:32.995Z,83456.00
2018-04-28T10:49:33.260Z,80160.00
2018-04-28T10:50:33.506Z,80416.00
2018-04-28T10:51:33.757Z,82208.00
2018-04-28T10:52:34.014Z,90624.00
2018-04-28T10:53:34.312Z,96960.00
2018-04-28T10:54:34.508Z,68160.00
2018-04-28T10:55:34.763Z,83712.00
2018-04-28T10:56:34.998Z,68832.00
2018-04-28T10:57:35.250Z,77376.00
2018-04-28T10:58:35.499Z,88896.00
2018-04-28T10:59:35.750Z,94432.00
2018-04-28T11:00:36.006Z,87200.00
2018-04-28T11:01:36.271Z,89312.00
2018-04-28T11:02:36.503Z,92224.00
2018-04-28T11:03:36.758Z,54560.00
2018-04-28T11:04:37.001Z,71040.00
2018-04-28T11:05:37.311Z,79232.00
2018-04-28T11:06:37.507Z,93728.00
2018-04-28T11:07:37.760Z,88704.00
2018-04-28T11:08:38.013Z,85568.00
2018-04-28T11:09:38.269Z,90624.00
2018-04-28T11:10:38.519Z,87648.00
2018-04-28T11:11:38.772Z,86400.00
2018-04-28T11:12:39.022Z,83616.00
2018-04-28T11:13:39.275Z,78528.00
2018-04-28T11:14:39.524Z,76864.00
2018-04-28T11:15:39.764Z,82688.00
2018-04-28T11:16:40.021Z,89696.00
2018-04-28T11:17:40.277Z,96480.00
2018-04-28T11:18:40.529Z,102560.00
2018-04-28T11:19:40.786Z,100960.00
2018-04-28T11:20:41.033Z,101984.00
2018-04-28T11:21:41.301Z,102848.00
2018-04-28T11:22:41.541Z,86784.00
2018-04-28T11:23:41.784Z,68032.00
2018-04-28T11:24:42.040Z,70016.00
2018-04-28T11:25:42.322Z,84352.00
2018-04-28T11:26:42.550Z,86240.00
2018-04-28T11:27:42.802Z,81280.00
2018-04-28T11:28:43.051Z,82624.00
2018-04-28T11:29:43.303Z,95168.00
2018-04-28T11:30:43.558Z,99552.00
2018-04-28T11:31:43.819Z,89888.00
2018-04-28T11:32:44.068Z,86720.00
2018-04-28T11:33:44.353Z,92928.00
2018-04-28T11:34:44.578Z,95072.00
2018-04-28T11:35:44.829Z,101312.00
2018-04-28T11:36:45.087Z,103968.00
2018-04-28T11:37:45.337Z,52640.00
2018-04-28T11:38:45.585Z,95680.00
2018-04-28T11:39:45.846Z,99264.00
2018-04-28T11:40:46.102Z,93664.00
2018-04-28T11:41:46.353Z,98592.00
2018-04-28T11:42:46.605Z,110080.00
2018-04-28T11:43:46.853Z,95936.00
2018-04-28T11:44:47.120Z,72736.00
2018-04-28T11:45:47.374Z,76960.00
2018-04-28T11:46:47.625Z,68384.00
2018-04-28T11:47:47.891Z,49184.00
2018-04-28T11:48:48.132Z,33888.00
2018-04-28T11:49:48.385Z,35168.00
2018-04-28T11:50:48.638Z,52896.00
2018-04-28T11:51:48.894Z,35776.00
2018-04-28T11:52:49.157Z,50176.00
2018-04-28T11:53:49.406Z,92608.00
2018-04-28T11:54:49.659Z,104000.00
2018-04-28T11:55:49.909Z,122976.00
2018-04-28T11:56:50.161Z,114144.00
2018-04-28T11:57:50.416Z,47968.00
2018-04-28T11:58:50.686Z,48352.00
2018-04-28T11:59:50.918Z,67648.00
2018-04-28T12:00:51.177Z,74336.00
2018-04-28T12:01:51.416Z,80000.00
2018-04-28T12:02:51.665Z,82464.00
2018-04-28T12:03:51.919Z,94528.00
2018-04-28T12:04:52.175Z,107104.00
2018-04-28T12:05:52.470Z,81984.00
2018-04-28T12:06:52.675Z,81568.00
2018-04-28T12:07:52.930Z,54048.00
2018-04-28T12:08:53.185Z,42496.00
2018-04-28T12:09:53.445Z,34080.00
2018-04-28T12:10:53.678Z,37120.00
2018-04-28T12:11:53.927Z,57632.00
2018-04-28T12:12:54.193Z,60896.00
2018-04-28T12:13:54.439Z,74432.00
2018-04-28T12:14:54.692Z,83104.00
2018-04-28T12:15:54.943Z,79904.00
2018-04-28T12:16:55.195Z,69984.00
2018-04-28T12:17:55.449Z,62368.00
2018-04-28T12:18:55.704Z,54432.00
2018-04-28T12:19:55.955Z,50944.00